Time;durP1;ratioP1;P1;durP2;ratioP2;P2;SDS_P1;SDS_P2;PMS_P1;PMS_P2;Temp;Humidity;BMP_temperature;BMP_pressure;BME280_temperature;BME280_humidity;BME280_pressure;Samples;Min_cycle;Max_cycle;Signal;HPM_P1;HPM_P2
2022/11/24 00:01:11;;;;;;;17.47;4.40;;;;;;;;;;5053002;28;20464;-44
2022/11/24 00:03:37;;;;;;;9.77;3.40;;;;;;;;;;5054531;28;20433;-44
2022/11/24 00:06:07;;;;;;;9.33;4.27;;;;;;;;;;5054397;28;20424;-44
2022/11/24 00:08:38;;;;;;;14.70;3.50;;;;;;;;;;5052300;28;20407;-44
2022/11/24 00:11:08;;;;;;;13.77;4.13;;;;;;;;;;5050838;28;20405;-44
2022/11/24 00:13:34;;;;;;;19.77;4.27;;;;;;;;;;5052302;28;20424;-44
2022/11/24 00:16:24;;;;;;;11.20;3.40;;;;;;;;;;5053385;28;20498;-45
2022/11/24 00:18:51;;;;;;;12.90;3.97;;;;;;;;;;5048530;28;20424;-44
2022/11/24 00:21:18;;;;;;;18.40;4.27;;;;;;;;;;5053843;28;20847;-45
2022/11/24 00:23:44;;;;;;;10.33;3.47;;;;;;;;;;5054059;28;20436;-44
2022/11/24 00:26:11;;;;;;;19.63;5.17;;;;;;;;;;5054043;28;20477;-44
2022/11/24 00:28:38;;;;;;;14.43;4.13;;;;;;;;;;5057404;28;20455;-44
2022/11/24 00:31:05;;;;;;;14.47;3.33;;;;;;;;;;5053548;28;20415;-44
2022/11/24 00:33:31;;;;;;;17.83;4.07;;;;;;;;;;5058025;28;20513;-44
2022/11/24 00:35:57;;;;;;;18.47;3.70;;;;;;;;;;5049809;28;20480;-44
2022/11/24 00:38:23;;;;;;;7.87;3.60;;;;;;;;;;5052033;28;20414;-44
2022/11/24 00:40:49;;;;;;;13.43;3.10;;;;;;;;;;5053500;28;20521;-44
2022/11/24 00:43:15;;;;;;;15.07;3.33;;;;;;;;;;5052783;28;21202;-44
2022/11/24 00:45:42;;;;;;;15.70;3.43;;;;;;;;;;5054912;28;20412;-46
2022/11/24 00:48:09;;;;;;;20.80;4.20;;;;;;;;;;5054931;28;20411;-46
2022/11/24 00:50:35;;;;;;;23.47;4.03;;;;;;;;;;5054987;28;20654;-46
2022/11/24 00:53:01;;;;;;;11.17;3.20;;;;;;;;;;5057808;28;20427;-45
2022/11/24 00:55:27;;;;;;;18.53;3.40;;;;;;;;;;5054965;28;20412;-45
2022/11/24 00:57:53;;;;;;;13.40;3.20;;;;;;;;;;5056734;28;20552;-44
2022/11/24 01:00:19;;;;;;;11.07;2.97;;;;;;;;;;5054240;28;20451;-46
2022/11/24 01:02:45;;;;;;;10.20;3.73;;;;;;;;;;5054831;28;20421;-47
2022/11/24 01:05:11;;;;;;;13.00;4.13;;;;;;;;;;5056170;28;20409;-47
2022/11/24 01:07:37;;;;;;;7.17;2.57;;;;;;;;;;5056234;28;20418;-45
2022/11/24 01:10:03;;;;;;;18.10;3.20;;;;;;;;;;5055257;28;20415;-46
2022/11/24 01:12:29;;;;;;;9.67;3.30;;;;;;;;;;5058172;28;20559;-45
2022/11/24 01:14:55;;;;;;;13.93;3.77;;;;;;;;;;5054012;28;20429;-46
2022/11/24 01:17:21;;;;;;;14.27;4.10;;;;;;;;;;5058760;28;20423;-45
2022/11/24 01:19:48;;;;;;;14.37;3.40;;;;;;;;;;5056121;28;20455;-46
2022/11/24 01:22:14;;;;;;;10.03;3.40;;;;;;;;;;5056541;28;20416;-46
2022/11/24 01:24:40;;;;;;;25.00;4.53;;;;;;;;;;5055279;28;20432;-45
2022/11/24 01:27:06;;;;;;;19.87;3.40;;;;;;;;;;5054278;28;20417;-45
2022/11/24 01:29:32;;;;;;;10.50;3.63;;;;;;;;;;5055110;28;20410;-46
2022/11/24 01:31:58;;;;;;;15.57;3.43;;;;;;;;;;5051335;28;20407;-45
2022/11/24 01:34:24;;;;;;;13.83;4.73;;;;;;;;;;5055249;28;20436;-45
2022/11/24 01:36:50;;;;;;;15.93;3.60;;;;;;;;;;5055759;28;20448;-45
2022/11/24 01:39:16;;;;;;;10.13;3.63;;;;;;;;;;5055558;28;20415;-46
2022/11/24 01:41:42;;;;;;;14.03;3.43;;;;;;;;;;5055408;28;20459;-47
2022/11/24 01:44:27;;;;;;;12.03;4.23;;;;;;;;;;5051966;28;20512;-47
2022/11/24 01:47:14;;;;;;;13.37;2.97;;;;;;;;;;5055134;28;20470;-46
2022/11/24 01:49:54;;;;;;;9.20;3.93;;;;;;;;;;5040725;28;20490;-46
2022/11/24 01:52:27;;;;;;;21.70;3.57;;;;;;;;;;5054945;28;20439;-45
2022/11/24 01:54:59;;;;;;;16.33;3.97;;;;;;;;;;5059906;28;20429;-45
2022/11/24 01:57:26;;;;;;;9.53;3.03;;;;;;;;;;5057935;28;20570;-46
2022/11/24 01:59:58;;;;;;;11.20;3.97;;;;;;;;;;5056705;28;20536;-45
2022/11/24 02:02:25;;;;;;;10.33;3.90;;;;;;;;;;5050588;28;20464;-46
2022/11/24 02:04:51;;;;;;;23.67;4.30;;;;;;;;;;5052031;28;20429;-45
2022/11/24 02:07:17;;;;;;;8.37;3.23;;;;;;;;;;5054044;28;20415;-45
2022/11/24 02:09:49;;;;;;;14.90;3.37;;;;;;;;;;5057865;28;20483;-45
2022/11/24 02:12:15;;;;;;;12.87;3.67;;;;;;;;;;5051615;28;20416;-46
2022/11/24 02:14:41;;;;;;;7.20;2.67;;;;;;;;;;5061263;28;20784;-47
2022/11/24 02:17:08;;;;;;;11.07;2.93;;;;;;;;;;5054245;28;20400;-45
2022/11/24 02:19:40;;;;;;;9.93;3.37;;;;;;;;;;5054350;28;20407;-45
2022/11/24 02:22:18;;;;;;;8.90;2.80;;;;;;;;;;5053620;28;20407;-45
2022/11/24 02:24:50;;;;;;;12.03;3.27;;;;;;;;;;5059049;28;20421;-47
2022/11/24 02:27:16;;;;;;;19.97;3.67;;;;;;;;;;5054868;28;20412;-45
2022/11/24 02:29:42;;;;;;;9.60;2.73;;;;;;;;;;5048790;28;20423;-46
2022/11/24 02:32:09;;;;;;;8.33;3.27;;;;;;;;;;5052521;28;20588;-45
2022/11/24 02:34:35;;;;;;;11.90;3.07;;;;;;;;;;5051902;28;20489;-46
2022/11/24 02:37:01;;;;;;;14.60;3.80;;;;;;;;;;5052537;28;20415;-46
2022/11/24 02:39:27;;;;;;;10.17;3.27;;;;;;;;;;5052498;28;20450;-47
2022/11/24 02:41:56;;;;;;;13.97;3.50;;;;;;;;;;5053228;28;20439;-45
2022/11/24 02:44:24;;;;;;;24.17;4.23;;;;;;;;;;5052987;28;20443;-45
2022/11/24 02:47:00;;;;;;;8.90;3.60;;;;;;;;;;5053737;28;20420;-46
2022/11/24 02:49:26;;;;;;;9.00;3.17;;;;;;;;;;5054869;28;20966;-46
2022/11/24 02:51:52;;;;;;;14.73;3.03;;;;;;;;;;5052873;28;20423;-46
2022/11/24 02:54:18;;;;;;;16.20;4.40;;;;;;;;;;5055058;28;20469;-47
2022/11/24 02:56:44;;;;;;;13.83;3.43;;;;;;;;;;5054899;28;20453;-47
2022/11/24 02:59:10;;;;;;;14.80;2.93;;;;;;;;;;5054408;28;20421;-47
2022/11/24 03:01:36;;;;;;;18.33;3.50;;;;;;;;;;5055026;28;20548;-45
2022/11/24 03:04:02;;;;;;;13.93;3.10;;;;;;;;;;5053711;28;20451;-45
2022/11/24 03:06:28;;;;;;;11.97;3.10;;;;;;;;;;5052870;28;20423;-45
2022/11/24 03:08:54;;;;;;;8.90;3.30;;;;;;;;;;5054175;28;20412;-46
2022/11/24 03:11:20;;;;;;;21.13;3.00;;;;;;;;;;5054315;28;20413;-46
2022/11/24 03:13:46;;;;;;;12.33;3.40;;;;;;;;;;5048490;28;20444;-45
2022/11/24 03:16:12;;;;;;;22.30;3.80;;;;;;;;;;5051201;28;20471;-46
2022/11/24 03:18:38;;;;;;;11.43;2.80;;;;;;;;;;5054012;28;20404;-47
2022/11/24 03:21:04;;;;;;;13.30;4.00;;;;;;;;;;5054012;28;20798;-45
2022/11/24 03:23:30;;;;;;;12.93;4.77;;;;;;;;;;5054033;28;20436;-45
2022/11/24 03:26:05;;;;;;;19.30;3.30;;;;;;;;;;5053680;28;20416;-43
2022/11/24 03:28:31;;;;;;;8.80;3.00;;;;;;;;;;5045185;28;20469;-47
2022/11/24 03:30:57;;;;;;;9.00;3.30;;;;;;;;;;5052167;28;20420;-47
2022/11/24 03:33:23;;;;;;;12.93;3.60;;;;;;;;;;5055087;28;20566;-46
2022/11/24 03:35:49;;;;;;;8.97;4.00;;;;;;;;;;5057269;28;20465;-46
2022/11/24 03:38:15;;;;;;;10.33;3.13;;;;;;;;;;5056439;28;20419;-46
2022/11/24 03:40:41;;;;;;;21.07;3.77;;;;;;;;;;5055852;28;20495;-46
2022/11/24 03:43:07;;;;;;;17.23;3.97;;;;;;;;;;5056506;28;20438;-46
2022/11/24 03:45:33;;;;;;;15.27;4.37;;;;;;;;;;5056742;28;20414;-45
2022/11/24 03:47:59;;;;;;;15.13;4.33;;;;;;;;;;5056299;28;20413;-47
2022/11/24 03:50:25;;;;;;;12.83;3.73;;;;;;;;;;5056302;28;20471;-44
2022/11/24 03:52:51;;;;;;;13.23;3.47;;;;;;;;;;5055879;28;20412;-43
2022/11/24 03:55:17;;;;;;;11.37;3.67;;;;;;;;;;5054706;28;20912;-42
2022/11/24 03:57:43;;;;;;;14.87;2.97;;;;;;;;;;5054939;28;20781;-43
2022/11/24 04:00:11;;;;;;;17.83;2.73;;;;;;;;;;5054309;28;20460;-43
2022/11/24 04:02:37;;;;;;;8.60;3.00;;;;;;;;;;5054597;28;20921;-43
2022/11/24 04:05:03;;;;;;;13.53;3.93;;;;;;;;;;5054593;28;20471;-44
2022/11/24 04:07:29;;;;;;;10.10;3.30;;;;;;;;;;5054615;28;20461;-43
2022/11/24 04:09:55;;;;;;;14.30;3.53;;;;;;;;;;5054469;28;20416;-43
2022/11/24 04:15:06;;;;;;;11.47;3.20;;;;;;;;;;5054316;28;20425;-43
2022/11/24 04:17:32;;;;;;;13.03;3.50;;;;;;;;;;5054525;28;20408;-43
2022/11/24 04:19:58;;;;;;;11.23;3.50;;;;;;;;;;5054330;28;20640;-44
2022/11/24 04:22:24;;;;;;;16.07;3.30;;;;;;;;;;5054074;28;20420;-44
2022/11/24 04:24:50;;;;;;;19.03;4.33;;;;;;;;;;5054133;28;20425;-45
2022/11/24 04:27:16;;;;;;;21.27;4.87;;;;;;;;;;5053947;28;20444;-43
2022/11/24 04:29:41;;;;;;;18.20;4.43;;;;;;;;;;5054081;28;20410;-42
2022/11/24 04:32:07;;;;;;;17.00;3.50;;;;;;;;;;5053765;28;20491;-43
2022/11/24 04:34:34;;;;;;;10.90;3.20;;;;;;;;;;5054093;28;20423;-42
2022/11/24 04:36:59;;;;;;;14.93;3.80;;;;;;;;;;5054159;28;20400;-43
2022/11/24 04:39:25;;;;;;;17.10;3.73;;;;;;;;;;5053934;28;20412;-43
2022/11/24 04:41:51;;;;;;;12.17;2.97;;;;;;;;;;5053544;28;20478;-44
2022/11/24 04:44:17;;;;;;;10.03;3.50;;;;;;;;;;5053576;28;20442;-44
2022/11/24 04:46:43;;;;;;;11.67;3.03;;;;;;;;;;5054021;28;20408;-45
2022/11/24 04:49:12;;;;;;;18.80;3.93;;;;;;;;;;5053601;28;20833;-42
2022/11/24 04:51:39;;;;;;;21.23;3.93;;;;;;;;;;5053566;28;20460;-43
2022/11/24 04:54:06;;;;;;;21.33;4.10;;;;;;;;;;5053435;28;20432;-43
2022/11/24 04:56:32;;;;;;;25.83;4.60;;;;;;;;;;5053773;28;20495;-43
2022/11/24 04:58:58;;;;;;;8.87;3.70;;;;;;;;;;5052136;28;20873;-42
2022/11/24 05:01:24;;;;;;;22.63;4.47;;;;;;;;;;5053103;28;20482;-45
2022/11/24 05:03:53;;;;;;;16.50;3.50;;;;;;;;;;5053499;28;20429;-43
2022/11/24 05:06:19;;;;;;;18.50;4.30;;;;;;;;;;5053496;28;20955;-46
2022/11/24 05:08:49;;;;;;;15.30;3.33;;;;;;;;;;5053477;28;20414;-46
2022/11/24 05:11:15;;;;;;;12.80;3.80;;;;;;;;;;5053344;28;20510;-42
2022/11/24 05:13:41;;;;;;;13.67;3.63;;;;;;;;;;5053291;28;20465;-42
2022/11/24 05:16:07;;;;;;;11.23;3.13;;;;;;;;;;5053331;28;20410;-43
2022/11/24 05:18:33;;;;;;;24.70;4.83;;;;;;;;;;5053235;28;20421;-42
2022/11/24 05:20:59;;;;;;;15.73;4.20;;;;;;;;;;5052929;28;20453;-43
2022/11/24 05:23:25;;;;;;;13.33;3.97;;;;;;;;;;5052925;28;20965;-42
2022/11/24 05:25:51;;;;;;;21.03;4.30;;;;;;;;;;5051916;28;20412;-43
2022/11/24 05:28:18;;;;;;;20.70;3.93;;;;;;;;;;5053286;28;20912;-42
2022/11/24 05:30:44;;;;;;;16.57;3.20;;;;;;;;;;5052899;28;20855;-43
2022/11/24 05:33:17;;;;;;;15.10;4.10;;;;;;;;;;5052850;28;20510;-42
2022/11/24 05:35:43;;;;;;;14.70;3.37;;;;;;;;;;5046988;28;20428;-43
2022/11/24 05:38:09;;;;;;;22.57;4.10;;;;;;;;;;5052797;28;20881;-43
2022/11/24 05:40:35;;;;;;;22.77;4.57;;;;;;;;;;5051125;28;20960;-46
2022/11/24 05:43:01;;;;;;;18.83;3.77;;;;;;;;;;5052837;28;20429;-45
2022/11/24 05:45:27;;;;;;;20.73;4.17;;;;;;;;;;5052747;28;20780;-44
2022/11/24 05:47:53;;;;;;;11.70;3.80;;;;;;;;;;5052749;28;20930;-42
2022/11/24 05:50:21;;;;;;;19.73;3.93;;;;;;;;;;5052453;28;20429;-44
2022/11/24 05:52:47;;;;;;;12.77;3.60;;;;;;;;;;5052297;28;20430;-43
2022/11/24 05:55:14;;;;;;;18.23;4.30;;;;;;;;;;5050409;28;20413;-43
2022/11/24 05:57:40;;;;;;;11.80;3.70;;;;;;;;;;5052929;28;20811;-42
2022/11/24 06:00:07;;;;;;;15.47;4.00;;;;;;;;;;5052384;28;20464;-42
2022/11/24 06:02:33;;;;;;;17.50;3.30;;;;;;;;;;5052179;28;20409;-43
2022/11/24 06:04:59;;;;;;;18.40;3.60;;;;;;;;;;5044767;28;20436;-42
2022/11/24 06:07:24;;;;;;;7.10;3.70;;;;;;;;;;5050524;28;20409;-42
2022/11/24 06:09:51;;;;;;;13.63;3.87;;;;;;;;;;5052497;28;20423;-42
2022/11/24 06:12:17;;;;;;;14.93;3.87;;;;;;;;;;5051955;28;20405;-42
2022/11/24 06:14:43;;;;;;;16.07;4.90;;;;;;;;;;5047560;28;20963;-42
2022/11/24 06:17:10;;;;;;;10.20;3.90;;;;;;;;;;5052189;28;20474;-43
2022/11/24 06:19:36;;;;;;;11.67;4.20;;;;;;;;;;5051996;28;20413;-45
2022/11/24 06:22:02;;;;;;;16.43;3.60;;;;;;;;;;5050778;28;20416;-42
2022/11/24 06:24:28;;;;;;;9.80;3.27;;;;;;;;;;5052134;28;20522;-42
2022/11/24 06:26:54;;;;;;;9.83;3.73;;;;;;;;;;5052026;28;20412;-42
2022/11/24 06:29:20;;;;;;;18.80;3.73;;;;;;;;;;5051968;28;20543;-43
2022/11/24 06:31:46;;;;;;;11.03;4.03;;;;;;;;;;5051746;28;20424;-42
2022/11/24 06:34:12;;;;;;;15.00;3.33;;;;;;;;;;5051337;28;20524;-43
2022/11/24 06:36:40;;;;;;;12.63;3.40;;;;;;;;;;5049970;28;20423;-43
2022/11/24 06:39:06;;;;;;;16.00;3.57;;;;;;;;;;5050946;28;20413;-44
2022/11/24 06:41:32;;;;;;;13.10;3.67;;;;;;;;;;5051027;28;20469;-44
2022/11/24 06:43:58;;;;;;;14.63;3.67;;;;;;;;;;5051085;28;20787;-42
2022/11/24 06:46:24;;;;;;;20.77;4.40;;;;;;;;;;5051821;28;20480;-43
2022/11/24 06:48:52;;;;;;;20.00;4.63;;;;;;;;;;5051183;28;20881;-42
2022/11/24 06:51:18;;;;;;;17.13;3.87;;;;;;;;;;5049588;28;20478;-44
2022/11/24 06:53:45;;;;;;;14.60;3.70;;;;;;;;;;5050955;28;20456;-44
2022/11/24 06:56:12;;;;;;;18.10;4.50;;;;;;;;;;5050931;28;20794;-46
2022/11/24 06:58:43;;;;;;;17.13;3.50;;;;;;;;;;5049964;28;20417;-42
2022/11/24 07:01:10;;;;;;;12.13;4.33;;;;;;;;;;5050339;28;20510;-42
2022/11/24 07:03:36;;;;;;;22.00;5.53;;;;;;;;;;5049718;28;20425;-43
2022/11/24 07:06:03;;;;;;;16.50;4.20;;;;;;;;;;5051254;28;20765;-44
2022/11/24 07:08:29;;;;;;;14.23;3.60;;;;;;;;;;5047212;28;20402;-43
2022/11/24 07:10:55;;;;;;;9.60;3.17;;;;;;;;;;5050331;28;20409;-43
2022/11/24 07:13:21;;;;;;;13.23;3.27;;;;;;;;;;5048788;28;20440;-43
2022/11/24 07:15:47;;;;;;;16.90;4.07;;;;;;;;;;5053684;28;20542;-43
2022/11/24 07:18:13;;;;;;;6.77;2.70;;;;;;;;;;5035674;28;20452;-42
2022/11/24 07:20:40;;;;;;;9.10;2.93;;;;;;;;;;5049797;28;20644;-44
2022/11/24 07:23:06;;;;;;;12.27;3.13;;;;;;;;;;5054426;28;20429;-43
2022/11/24 07:25:32;;;;;;;15.27;3.20;;;;;;;;;;5054571;28;20411;-43
2022/11/24 07:27:59;;;;;;;13.77;4.20;;;;;;;;;;5056273;28;20404;-43
2022/11/24 07:30:28;;;;;;;8.93;3.00;;;;;;;;;;5052502;28;20819;-46
2022/11/24 07:33:01;;;;;;;14.87;3.43;;;;;;;;;;5035733;28;20428;-43
2022/11/24 07:35:27;;;;;;;18.53;3.70;;;;;;;;;;5054899;28;20991;-42
2022/11/24 07:37:54;;;;;;;12.70;3.37;;;;;;;;;;5054595;28;20540;-43
2022/11/24 07:40:20;;;;;;;12.47;3.33;;;;;;;;;;5054661;28;20509;-43
2022/11/24 07:42:46;;;;;;;14.17;4.13;;;;;;;;;;5054798;28;20405;-44
2022/11/24 07:45:12;;;;;;;14.00;2.80;;;;;;;;;;5053577;28;20405;-43
2022/11/24 07:47:39;;;;;;;8.63;3.33;;;;;;;;;;5037548;28;20412;-42
2022/11/24 07:50:05;;;;;;;6.97;3.10;;;;;;;;;;5053503;28;20436;-46
2022/11/24 07:52:31;;;;;;;12.40;3.10;;;;;;;;;;5054526;28;20423;-43
2022/11/24 07:54:57;;;;;;;4.60;3.00;;;;;;;;;;5054709;28;20432;-43
2022/11/24 07:57:23;;;;;;;5.47;2.13;;;;;;;;;;5054486;28;20428;-46
2022/11/24 07:59:49;;;;;;;12.43;2.87;;;;;;;;;;5053441;28;20439;-46
2022/11/24 08:02:15;;;;;;;6.73;2.20;;;;;;;;;;5054400;28;20412;-42
2022/11/24 08:04:41;;;;;;;5.20;2.43;;;;;;;;;;5054662;28;20449;-44
2022/11/24 08:07:07;;;;;;;11.73;2.33;;;;;;;;;;5054251;28;20401;-43
2022/11/24 08:09:34;;;;;;;6.27;2.10;;;;;;;;;;5054910;28;20491;-43
2022/11/24 08:12:00;;;;;;;4.20;2.13;;;;;;;;;;5050454;28;20491;-45
2022/11/24 08:14:26;;;;;;;5.33;1.90;;;;;;;;;;5054061;28;20460;-42
2022/11/24 08:16:52;;;;;;;5.03;2.20;;;;;;;;;;5054279;28;20811;-43
2022/11/24 08:19:18;;;;;;;3.47;1.77;;;;;;;;;;5053644;28;20775;-42
2022/11/24 08:21:44;;;;;;;6.67;2.17;;;;;;;;;;5053766;28;20831;-42
2022/11/24 08:24:10;;;;;;;5.50;1.70;;;;;;;;;;5054215;28;20425;-43
2022/11/24 08:26:36;;;;;;;2.70;1.80;;;;;;;;;;5054163;28;20400;-43
2022/11/24 08:29:02;;;;;;;6.80;1.70;;;;;;;;;;5052931;28;20415;-48
2022/11/24 08:31:32;;;;;;;3.43;2.00;;;;;;;;;;5052664;28;20482;-43
2022/11/24 08:33:58;;;;;;;3.37;1.60;;;;;;;;;;5053787;28;20963;-44
2022/11/24 08:36:24;;;;;;;12.10;2.00;;;;;;;;;;5053771;28;20418;-43
2022/11/24 08:38:54;;;;;;;4.60;1.80;;;;;;;;;;5054030;28;20500;-43
2022/11/24 08:41:20;;;;;;;4.20;1.90;;;;;;;;;;5052232;28;20492;-43
2022/11/24 08:43:45;;;;;;;2.40;1.80;;;;;;;;;;5053747;28;20448;-43
2022/11/24 08:46:13;;;;;;;5.33;1.87;;;;;;;;;;5054050;28;20402;-42
2022/11/24 08:48:39;;;;;;;7.20;1.67;;;;;;;;;;5053710;28;20405;-45
2022/11/24 08:51:09;;;;;;;9.17;1.77;;;;;;;;;;5053006;28;20429;-44
2022/11/24 08:53:36;;;;;;;7.57;1.90;;;;;;;;;;5053590;28;20425;-43
2022/11/24 08:56:02;;;;;;;4.40;1.27;;;;;;;;;;5052840;28;20424;-44
2022/11/24 08:58:29;;;;;;;3.93;1.60;;;;;;;;;;5045335;28;20413;-43
2022/11/24 09:00:55;;;;;;;4.87;1.30;;;;;;;;;;5053045;28;20970;-42
2022/11/24 09:03:21;;;;;;;2.93;1.67;;;;;;;;;;5052996;28;20774;-46
2022/11/24 09:05:47;;;;;;;7.03;2.20;;;;;;;;;;5053378;28;20498;-43
2022/11/24 09:08:13;;;;;;;11.40;2.83;;;;;;;;;;5052546;28;20937;-44
2022/11/24 09:10:39;;;;;;;5.33;2.57;;;;;;;;;;5052121;28;20408;-43
2022/11/24 09:13:05;;;;;;;5.13;1.80;;;;;;;;;;5051786;28;20512;-45
2022/11/24 09:15:31;;;;;;;7.87;2.17;;;;;;;;;;5058370;28;20412;-45
2022/11/24 09:18:01;;;;;;;6.33;2.60;;;;;;;;;;5054761;28;20432;-45
2022/11/24 09:20:27;;;;;;;3.83;2.20;;;;;;;;;;5055018;28;20471;-45
2022/11/24 09:22:53;;;;;;;4.30;1.87;;;;;;;;;;5055446;28;20413;-45
2022/11/24 09:25:19;;;;;;;6.67;2.23;;;;;;;;;;5056919;28;20410;-46
2022/11/24 09:27:45;;;;;;;8.13;2.07;;;;;;;;;;5058191;28;20495;-45
2022/11/24 09:30:11;;;;;;;8.17;2.40;;;;;;;;;;5054236;28;20451;-45
2022/11/24 09:32:37;;;;;;;4.53;2.10;;;;;;;;;;5044955;28;20413;-47
2022/11/24 09:35:04;;;;;;;11.73;2.23;;;;;;;;;;5048589;28;20429;-48
2022/11/24 09:37:31;;;;;;;6.07;2.17;;;;;;;;;;5062694;28;20405;-46
2022/11/24 09:39:57;;;;;;;6.53;2.03;;;;;;;;;;5056596;28;20412;-47
2022/11/24 09:42:23;;;;;;;7.50;2.30;;;;;;;;;;5062867;28;20425;-45
2022/11/24 09:44:57;;;;;;;4.20;2.47;;;;;;;;;;5056811;28;20425;-45
2022/11/24 09:47:32;;;;;;;6.10;2.00;;;;;;;;;;5055494;28;20413;-44
2022/11/24 09:50:04;;;;;;;5.23;2.57;;;;;;;;;;5052528;28;20915;-44
2022/11/24 09:52:50;;;;;;;7.27;2.17;;;;;;;;;;5047989;28;20410;-45
2022/11/24 09:55:23;;;;;;;6.00;2.33;;;;;;;;;;5052200;28;20404;-44
2022/11/24 09:57:53;;;;;;;5.90;2.00;;;;;;;;;;5051960;28;20463;-44
2022/11/24 10:00:19;;;;;;;6.73;2.57;;;;;;;;;;5051012;28;20508;-44
2022/11/24 10:02:47;;;;;;;5.13;2.20;;;;;;;;;;5056898;28;20921;-45
2022/11/24 10:05:13;;;;;;;7.10;2.90;;;;;;;;;;5051567;28;20411;-44
2022/11/24 10:07:45;;;;;;;8.57;2.23;;;;;;;;;;5055937;28;20406;-44
2022/11/24 10:10:25;;;;;;;7.50;3.07;;;;;;;;;;5049774;28;20504;-45
2022/11/24 10:12:57;;;;;;;4.90;2.90;;;;;;;;;;5050710;28;20856;-45
2022/11/24 10:15:26;;;;;;;7.70;3.07;;;;;;;;;;5046000;28;20418;-44
2022/11/24 10:18:09;;;;;;;8.20;3.20;;;;;;;;;;5051766;28;20417;-43
2022/11/24 10:20:53;;;;;;;7.37;3.10;;;;;;;;;;5044378;28;20461;-44
2022/11/24 10:23:19;;;;;;;7.63;3.20;;;;;;;;;;5051464;28;20432;-43
2022/11/24 10:25:54;;;;;;;5.40;3.73;;;;;;;;;;5053381;28;20410;-43
2022/11/24 10:28:20;;;;;;;8.50;3.43;;;;;;;;;;5052565;28;20409;-44
2022/11/24 10:30:46;;;;;;;7.73;4.50;;;;;;;;;;5051218;28;20562;-45
2022/11/24 10:33:17;;;;;;;8.80;3.07;;;;;;;;;;5051085;28;20420;-45
2022/11/24 10:35:55;;;;;;;5.57;2.43;;;;;;;;;;5052312;28;20429;-44
2022/11/24 10:38:21;;;;;;;8.20;3.50;;;;;;;;;;5050525;28;20409;-45
2022/11/24 10:40:48;;;;;;;9.20;3.40;;;;;;;;;;5051004;28;20468;-44
2022/11/24 10:43:14;;;;;;;7.20;2.90;;;;;;;;;;5051428;28;20490;-44
2022/11/24 10:45:40;;;;;;;16.13;4.80;;;;;;;;;;5051213;28;20783;-44
2022/11/24 10:48:07;;;;;;;10.73;3.30;;;;;;;;;;5053761;28;20435;-43
2022/11/24 10:50:36;;;;;;;10.60;3.10;;;;;;;;;;5051125;28;20810;-44
2022/11/24 10:53:18;;;;;;;12.40;4.13;;;;;;;;;;5052995;28;20473;-43
2022/11/24 10:55:57;;;;;;;5.70;2.70;;;;;;;;;;5051560;28;20491;-45
2022/11/24 10:58:25;;;;;;;7.90;2.70;;;;;;;;;;5051453;28;20896;-43
2022/11/24 11:00:51;;;;;;;9.80;3.20;;;;;;;;;;5050657;28;20457;-43
2022/11/24 11:03:19;;;;;;;15.30;3.23;;;;;;;;;;5050723;28;20788;-43
2022/11/24 11:05:50;;;;;;;11.13;3.30;;;;;;;;;;5051455;28;20803;-44
2022/11/24 11:08:18;;;;;;;10.53;2.53;;;;;;;;;;5051290;28;21025;-43
2022/11/24 11:10:45;;;;;;;6.93;2.33;;;;;;;;;;5050717;28;20413;-43
2022/11/24 11:13:22;;;;;;;10.20;2.70;;;;;;;;;;5044314;28;20844;-43
2022/11/24 11:15:48;;;;;;;15.00;3.53;;;;;;;;;;5050792;28;20520;-43
2022/11/24 11:18:16;;;;;;;8.37;2.73;;;;;;;;;;5051153;28;20424;-44
2022/11/24 11:20:50;;;;;;;7.63;3.30;;;;;;;;;;5051018;28;20451;-43
2022/11/24 11:23:20;;;;;;;12.10;2.80;;;;;;;;;;5049054;28;21100;-44
2022/11/24 11:25:47;;;;;;;10.63;2.90;;;;;;;;;;5046677;28;20430;-44
2022/11/24 11:28:29;;;;;;;9.43;2.37;;;;;;;;;;5042985;28;20899;-43
2022/11/24 11:31:04;;;;;;;6.53;2.70;;;;;;;;;;5048885;28;20414;-47
2022/11/24 11:33:30;;;;;;;8.60;2.60;;;;;;;;;;5043241;28;20459;-43
2022/11/24 11:35:57;;;;;;;10.70;2.50;;;;;;;;;;5050294;28;20413;-43
2022/11/24 11:38:25;;;;;;;4.93;2.13;;;;;;;;;;5051058;28;20904;-44
2022/11/24 11:40:51;;;;;;;9.93;2.67;;;;;;;;;;5050205;28;20467;-44
2022/11/24 11:43:20;;;;;;;9.73;3.37;;;;;;;;;;5050637;28;20507;-46
2022/11/24 11:45:54;;;;;;;6.67;2.37;;;;;;;;;;5051290;28;20438;-43
2022/11/24 11:48:30;;;;;;;7.30;2.40;;;;;;;;;;5050129;28;20509;-43
2022/11/24 11:51:00;;;;;;;9.47;2.33;;;;;;;;;;5050621;28;20424;-43
2022/11/24 11:53:29;;;;;;;7.40;2.13;;;;;;;;;;5051895;28;20480;-45
2022/11/24 11:56:13;;;;;;;8.17;2.80;;;;;;;;;;5054620;28;20441;-43
2022/11/24 11:58:58;;;;;;;6.90;2.30;;;;;;;;;;5048354;28;20888;-43
2022/11/24 12:01:29;;;;;;;6.30;2.30;;;;;;;;;;5054333;28;20977;-43
2022/11/24 12:04:01;;;;;;;6.63;2.53;;;;;;;;;;5054003;28;20488;-43
2022/11/24 12:06:47;;;;;;;11.90;2.70;;;;;;;;;;5054679;28;20855;-46
2022/11/24 12:09:16;;;;;;;14.83;2.87;;;;;;;;;;5054531;28;20502;-45
2022/11/24 12:11:51;;;;;;;7.90;3.20;;;;;;;;;;5053339;28;20899;-43
2022/11/24 12:14:17;;;;;;;8.90;2.80;;;;;;;;;;5053963;28;20469;-43
2022/11/24 12:16:49;;;;;;;7.90;3.00;;;;;;;;;;5054692;28;20415;-43
2022/11/24 12:19:15;;;;;;;9.33;2.47;;;;;;;;;;5054070;28;20410;-43
2022/11/24 12:21:53;;;;;;;5.60;2.60;;;;;;;;;;5054614;28;20446;-43
2022/11/24 12:24:27;;;;;;;6.37;2.67;;;;;;;;;;5053928;28;20433;-43
2022/11/24 12:26:58;;;;;;;8.10;2.90;;;;;;;;;;5054191;28;20398;-43
2022/11/24 12:29:38;;;;;;;6.67;2.20;;;;;;;;;;5054077;28;20419;-43
2022/11/24 12:32:40;;;;;;;8.37;2.73;;;;;;;;;;5054121;28;20500;-43
2022/11/24 12:35:07;;;;;;;6.47;2.53;;;;;;;;;;5042687;28;20759;-43
2022/11/24 12:37:49;;;;;;;8.70;2.80;;;;;;;;;;5043643;28;20413;-46
2022/11/24 12:40:20;;;;;;;10.47;3.00;;;;;;;;;;5053545;28;20502;-43
2022/11/24 12:43:05;;;;;;;5.50;2.57;;;;;;;;;;5052084;28;20411;-43
2022/11/24 12:45:31;;;;;;;13.27;2.60;;;;;;;;;;5045972;28;20841;-43
2022/11/24 12:48:02;;;;;;;12.07;3.10;;;;;;;;;;5049197;28;20494;-43
2022/11/24 12:50:29;;;;;;;8.30;2.67;;;;;;;;;;5048606;28;20459;-48
2022/11/24 12:53:15;;;;;;;7.33;2.43;;;;;;;;;;5049336;28;20966;-43
2022/11/24 12:55:42;;;;;;;18.60;2.80;;;;;;;;;;5046826;28;20899;-44
2022/11/24 12:58:11;;;;;;;4.90;2.63;;;;;;;;;;5051900;28;20413;-44
2022/11/24 13:00:52;;;;;;;13.20;2.83;;;;;;;;;;5053095;28;20571;-44
2022/11/24 13:03:30;;;;;;;14.40;3.40;;;;;;;;;;5054088;28;20878;-44
2022/11/24 13:06:02;;;;;;;13.83;3.03;;;;;;;;;;5053179;28;20403;-45
2022/11/24 13:08:29;;;;;;;13.40;3.00;;;;;;;;;;5045141;28;21243;-44
2022/11/24 13:11:15;;;;;;;10.67;3.20;;;;;;;;;;5051092;28;20420;-44
2022/11/24 13:14:00;;;;;;;17.97;3.90;;;;;;;;;;5048350;28;20876;-47
2022/11/24 13:16:26;;;;;;;13.73;2.70;;;;;;;;;;5058033;28;20767;-47
2022/11/24 13:18:56;;;;;;;7.20;2.70;;;;;;;;;;5063139;28;20435;-47
2022/11/24 13:21:49;;;;;;;8.13;2.37;;;;;;;;;;5045494;28;20968;-46
2022/11/24 13:24:15;;;;;;;11.07;2.73;;;;;;;;;;5053658;28;20789;-43
2022/11/24 13:26:41;;;;;;;9.07;3.37;;;;;;;;;;5053890;28;20416;-47
2022/11/24 13:29:26;;;;;;;12.90;2.70;;;;;;;;;;5056473;28;20404;-45
2022/11/24 13:32:18;;;;;;;9.03;2.80;;;;;;;;;;5056060;28;20425;-48
2022/11/24 13:34:44;;;;;;;6.87;2.97;;;;;;;;;;5044877;28;20433;-47
2022/11/24 13:37:23;;;;;;;13.30;2.80;;;;;;;;;;5049146;28;20413;-48
2022/11/24 13:39:53;;;;;;;12.13;3.20;;;;;;;;;;5053267;28;20388;-45
2022/11/24 13:42:20;;;;;;;8.60;2.70;;;;;;;;;;5049214;28;20406;-45
2022/11/24 13:44:49;;;;;;;8.30;2.80;;;;;;;;;;5057015;28;20900;-45
2022/11/24 13:47:28;;;;;;;8.60;2.37;;;;;;;;;;5051941;28;20484;-45
2022/11/24 13:49:53;;;;;;;8.50;2.70;;;;;;;;;;5058526;28;20428;-44
2022/11/24 13:52:38;;;;;;;11.00;2.67;;;;;;;;;;5051612;28;20385;-45
2022/11/24 13:55:18;;;;;;;12.73;2.83;;;;;;;;;;5054238;28;20463;-48
2022/11/24 13:57:44;;;;;;;10.73;2.87;;;;;;;;;;5056608;28;20870;-49
2022/11/24 14:00:22;;;;;;;10.40;2.70;;;;;;;;;;5055670;28;20393;-47
2022/11/24 14:02:49;;;;;;;8.33;3.00;;;;;;;;;;5049755;28;20467;-48
2022/11/24 14:05:16;;;;;;;18.07;3.33;;;;;;;;;;5055713;28;20391;-47
2022/11/24 14:07:45;;;;;;;8.10;2.60;;;;;;;;;;5055043;28;20381;-46
2022/11/24 14:10:28;;;;;;;9.30;2.83;;;;;;;;;;5053230;28;20428;-46
2022/11/24 14:13:26;;;;;;;9.43;3.30;;;;;;;;;;5048979;28;20376;-44
2022/11/24 14:16:12;;;;;;;4.97;2.53;;;;;;;;;;5051590;28;20837;-43
2022/11/24 14:18:39;;;;;;;15.93;3.40;;;;;;;;;;5044404;28;20496;-43
2022/11/24 14:21:24;;;;;;;9.60;2.73;;;;;;;;;;5049014;28;20957;-43
2022/11/24 14:23:54;;;;;;;6.00;3.20;;;;;;;;;;5050861;28;20518;-44
2022/11/24 14:26:22;;;;;;;13.17;3.67;;;;;;;;;;5051597;28;20415;-43
2022/11/24 14:28:51;;;;;;;9.90;2.50;;;;;;;;;;5051351;28;20443;-44
2022/11/24 14:31:27;;;;;;;12.50;3.67;;;;;;;;;;5049842;28;20424;-44
2022/11/24 14:34:12;;;;;;;18.57;4.60;;;;;;;;;;5054285;28;20415;-46
2022/11/24 14:36:39;;;;;;;9.23;2.53;;;;;;;;;;5046918;28;20882;-45
2022/11/24 14:39:05;;;;;;;14.97;4.43;;;;;;;;;;5048471;28;20410;-44
2022/11/24 14:41:32;;;;;;;15.10;3.20;;;;;;;;;;5046540;28;20463;-44
2022/11/24 14:44:04;;;;;;;15.00;3.30;;;;;;;;;;5050958;28;20434;-44
2022/11/24 14:46:30;;;;;;;15.10;3.70;;;;;;;;;;5043367;28;20451;-44
2022/11/24 14:48:56;;;;;;;8.20;2.80;;;;;;;;;;5048996;28;20479;-44